This is the latest recevied weather packets stored in our database for station/object WA2TQI. If no packets are shown the sender has not sent any weather packets the latest 10 day(s).
| Time | Temp. | Humidity | Pressure | Rain* | Wind** | Luminosity | Snow |
|---|---|---|---|---|---|---|---|
| 1777583692 | 17.78° C | 62% | 1008.6 hPa | 0 mm | - | - | - |
| 1777583392 | 17.78° C | 65% | 1008.6 hPa | 0 mm | - | - | - |
| 1777583091 | 17.78° C | 64% | 1008.4 hPa | 0 mm | - | - | - |
| 1777581572 | 18.33° C | 63% | 1008 hPa | 0 mm | - | - | - |
| 1777581267 | 18.33° C | 65% | 1008 hPa | 0 mm | - | - | - |
| 1777580662 | 17.78° C | 64% | 1008 hPa | 0 mm | - | - | - |
| 1777580358 | 17.78° C | 66% | 1008 hPa | 0 mm | - | - | - |
| 1777580055 | 17.78° C | 68% | 1008 hPa | 0 mm | - | - | - |
| 1777579751 | 17.78° C | 67% | 1008 hPa | 0 mm | - | - | - |
| 1777579449 | 17.78° C | 67% | 1007.9 hPa | 0 mm | - | - | - |
| 1777579145 | 17.78° C | 68% | 1008 hPa | 0 mm | - | - | - |
| 1777578845 | 17.78° C | 65% | 1008 hPa | 0 mm | - | - | - |
| 1777577931 | 18.33° C | 65% | 1007.9 hPa | 0 mm | - | - | - |
| 1777577626 | 17.78° C | 65% | 1007.8 hPa | 0 mm | - | - | - |
| 1777577020 | 18.33° C | 66% | 1007.7 hPa | 0 mm | - | - | - |
| 1777576416 | 17.78° C | 70% | 1007.9 hPa | 0 mm | - | - | - |
| 1777570034 | 16.11° C | 85% | 1008.5 hPa | 0 mm | - | - | - |
| 1777569730 | 15.56° C | 84% | 1008.9 hPa | 0 mm | - | - | - |
| 1777569425 | 15° C | 87% | 1008.8 hPa | 0 mm | - | - | - |
| 1777565182 | 13.33° C | 96% | 1009 hPa | 0 mm | - | - | - |
| 1777564270 | 12.78° C | 97% | 1009 hPa | 0 mm | - | - | - |
| 1777563966 | 12.78° C | 97% | 1009.1 hPa | 0 mm | - | - | - |
| 1777563663 | 12.78° C | 98% | 1009.2 hPa | 0 mm | - | - | - |
| 1777563361 | 12.78° C | 98% | 1009.2 hPa | 0 mm | - | - | - |
| 1777563058 | 12.78° C | 99% | 1009.4 hPa | 0 mm | - | - | - |
* Rain latest hour (hover to see other rain measurements)
** Current wind speed in m/s (hover to see current wind gust speed)